createdAt,value
2022-12-06T00:02:44.218Z,0.89
2022-12-06T00:08:09.413Z,0.90
2022-12-06T00:13:33.161Z,0.89
2022-12-06T00:19:01.377Z,0.94
2022-12-06T00:24:29.150Z,0.94
2022-12-06T00:30:00.402Z,0.97
2022-12-06T00:35:28.189Z,0.97
2022-12-06T00:40:52.193Z,0.97
2022-12-06T00:46:20.257Z,0.97
2022-12-06T00:51:49.238Z,0.97
2022-12-06T00:57:14.265Z,0.98
2022-12-06T01:02:38.367Z,0.99
2022-12-06T01:08:06.255Z,0.99
2022-12-06T01:13:30.253Z,1.00
2022-12-06T01:18:56.253Z,1.00
2022-12-06T01:24:23.234Z,1.00
2022-12-06T01:29:54.205Z,1.00
2022-12-06T01:35:19.234Z,1.00
2022-12-06T01:40:52.225Z,1.01
2022-12-06T01:46:29.225Z,1.02
2022-12-06T01:51:56.191Z,1.01
2022-12-06T01:57:26.221Z,1.02
2022-12-06T02:02:51.473Z,1.03
2022-12-06T02:08:17.297Z,1.05
2022-12-06T02:13:44.283Z,1.05
2022-12-06T02:19:20.218Z,1.04
2022-12-06T02:25:17.228Z,1.07
2022-12-06T02:30:56.312Z,1.08
2022-12-06T02:36:25.226Z,1.10
2022-12-06T02:41:55.248Z,1.08
2022-12-06T02:47:25.215Z,1.08
2022-12-06T02:52:55.214Z,1.09
2022-12-06T02:58:20.254Z,1.12
2022-12-06T03:04:38.326Z,1.17
2022-12-06T03:10:14.224Z,1.16
2022-12-06T03:15:48.302Z,1.07
2022-12-06T03:21:17.228Z,0.96
2022-12-06T03:26:54.540Z,0.95
2022-12-06T03:32:23.271Z,0.87
2022-12-06T03:37:49.244Z,0.82
2022-12-06T03:43:17.265Z,0.80
2022-12-06T03:48:46.259Z,0.78
2022-12-06T03:54:14.308Z,0.73
2022-12-06T03:59:41.261Z,0.75
2022-12-06T04:05:06.253Z,0.79
2022-12-06T04:10:31.244Z,0.82
2022-12-06T04:15:59.314Z,0.86
2022-12-06T04:21:36.249Z,0.86
2022-12-06T04:27:21.337Z,0.90
2022-12-06T04:33:01.296Z,0.90
2022-12-06T04:38:38.299Z,0.96
2022-12-06T04:44:02.297Z,0.98
2022-12-06T04:49:33.250Z,1.01
2022-12-06T04:54:58.293Z,1.03
2022-12-06T05:00:25.347Z,1.04
2022-12-06T05:05:53.269Z,1.04
2022-12-06T05:11:18.316Z,1.07
2022-12-06T05:16:43.409Z,1.10
2022-12-06T05:22:11.285Z,1.11
2022-12-06T05:27:36.335Z,1.10
2022-12-06T05:33:01.296Z,1.07
2022-12-06T05:38:35.305Z,1.07
2022-12-06T05:44:00.360Z,1.11
2022-12-06T05:49:25.313Z,1.08
2022-12-06T05:54:53.307Z,1.12
2022-12-06T06:00:19.465Z,1.11
2022-12-06T06:05:44.289Z,1.09
2022-12-06T06:11:12.376Z,1.03
2022-12-06T06:16:39.402Z,1.03
2022-12-06T06:22:03.309Z,1.02
2022-12-06T06:27:31.320Z,1.01
2022-12-06T06:47:48.033Z,1.09
2022-12-06T06:53:19.040Z,1.05
2022-12-06T06:58:43.993Z,1.01
2022-12-06T07:04:11.989Z,1.00
2022-12-06T07:09:37.030Z,0.95
2022-12-06T07:15:01.033Z,0.95
2022-12-06T07:20:29.131Z,0.96
2022-12-06T07:25:53.049Z,0.92
2022-12-06T07:31:19.158Z,0.92
2022-12-06T07:36:47.038Z,0.91
2022-12-06T07:42:24.070Z,0.92
2022-12-06T07:47:49.065Z,0.92
2022-12-06T07:53:23.045Z,0.90
2022-12-06T07:58:48.043Z,0.93
2022-12-06T08:04:15.134Z,0.94
2022-12-06T08:09:43.025Z,0.94
2022-12-06T08:15:07.036Z,0.92
2022-12-06T08:20:32.050Z,0.94
2022-12-06T08:25:59.062Z,0.95
2022-12-06T08:31:26.251Z,0.95
2022-12-06T08:36:50.045Z,0.97
2022-12-06T08:42:23.546Z,0.98
2022-12-06T08:47:49.074Z,1.01
2022-12-06T08:53:20.080Z,1.01
2022-12-06T08:58:48.040Z,1.02
2022-12-06T09:04:14.208Z,1.03
2022-12-06T09:09:39.049Z,1.05
2022-12-06T09:15:06.090Z,1.07
2022-12-06T09:20:31.092Z,1.08
2022-12-06T09:25:57.076Z,1.07
2022-12-06T09:31:25.122Z,1.12
2022-12-06T09:36:50.110Z,1.14
2022-12-06T09:42:45.110Z,1.14
2022-12-06T09:48:33.086Z,1.14
2022-12-06T09:54:18.076Z,1.16
2022-12-06T09:59:56.108Z,1.15
2022-12-06T10:05:51.937Z,1.11
2022-12-06T10:11:28.083Z,1.09
2022-12-06T10:17:09.459Z,1.05
2022-12-06T10:22:44.136Z,1.04
2022-12-06T10:28:17.136Z,1.01
2022-12-06T10:33:52.103Z,0.99
2022-12-06T10:39:25.148Z,0.95
2022-12-06T10:44:55.092Z,0.88
2022-12-06T10:50:23.125Z,0.85
2022-12-06T10:55:58.124Z,0.81
2022-12-06T11:01:29.195Z,0.73
2022-12-06T11:06:59.131Z,0.68
2022-12-06T11:12:40.101Z,0.60
2022-12-06T11:18:12.159Z,0.59
2022-12-06T11:23:42.138Z,0.63
2022-12-06T11:29:14.112Z,0.65
2022-12-06T11:34:43.154Z,0.65
2022-12-06T11:40:17.215Z,0.65
2022-12-06T11:45:49.123Z,0.66
2022-12-06T11:51:17.109Z,0.67
2022-12-06T11:56:45.125Z,0.67
2022-12-06T12:02:19.423Z,0.75
2022-12-06T12:07:45.336Z,0.75
2022-12-06T12:13:55.422Z,0.74
2022-12-06T12:19:40.178Z,0.72
2022-12-06T12:25:19.012Z,0.72
2022-12-06T12:30:46.126Z,0.71
2022-12-06T12:36:37.142Z,0.69
2022-12-06T12:42:03.151Z,0.70
2022-12-06T12:47:33.173Z,0.72
2022-12-06T12:53:08.176Z,0.73
2022-12-06T12:58:36.106Z,0.73
2022-12-06T13:04:02.178Z,0.75
2022-12-06T13:09:39.158Z,0.74
2022-12-06T13:15:11.173Z,0.76
2022-12-06T13:20:39.173Z,0.78
2022-12-06T13:26:20.488Z,0.78
2022-12-06T13:31:48.394Z,0.79
2022-12-06T13:37:12.209Z,0.79
2022-12-06T13:42:58.445Z,0.81
2022-12-06T13:48:52.221Z,0.79
2022-12-06T13:54:48.687Z,0.80
2022-12-06T14:00:56.267Z,0.77
2022-12-06T14:06:23.189Z,0.73
2022-12-06T14:11:49.581Z,0.72
2022-12-06T14:17:52.624Z,0.73
2022-12-06T14:23:05.209Z,0.72
2022-12-06T14:28:30.144Z,0.73
2022-12-06T14:34:00.254Z,0.74
2022-12-06T14:39:31.182Z,0.74
2022-12-06T14:45:02.158Z,0.76
2022-12-06T14:50:43.245Z,0.75
2022-12-06T14:56:11.254Z,0.76
2022-12-06T15:01:40.989Z,0.75
2022-12-06T15:07:09.199Z,0.77
2022-12-06T15:12:57.219Z,0.76
2022-12-06T15:18:31.510Z,0.79
2022-12-06T15:24:04.270Z,0.78
2022-12-06T15:29:30.948Z,0.79
2022-12-06T15:34:56.215Z,0.82
2022-12-06T15:40:26.239Z,0.83
2022-12-06T15:45:52.581Z,0.84
2022-12-06T15:51:25.210Z,0.85
2022-12-06T16:03:00.300Z,0.87
2022-12-06T16:08:25.506Z,0.88
2022-12-06T16:13:54.266Z,0.91
2022-12-06T16:19:21.352Z,0.92
2022-12-06T16:24:52.314Z,0.96
2022-12-06T16:30:23.164Z,0.96
2022-12-06T16:35:48.274Z,0.98
2022-12-06T16:41:13.320Z,0.98
2022-12-06T16:46:43.480Z,0.97
2022-12-06T16:52:08.275Z,0.96
2022-12-06T16:57:33.707Z,0.97
2022-12-06T17:03:02.263Z,0.97
2022-12-06T17:08:27.283Z,1.00
2022-12-06T17:13:52.259Z,0.99
2022-12-06T17:19:28.293Z,0.99
2022-12-06T17:24:53.267Z,1.01
2022-12-06T17:30:25.221Z,1.03
2022-12-06T17:35:53.265Z,1.06
2022-12-06T17:41:36.734Z,1.07
2022-12-06T17:47:01.267Z,1.09
2022-12-06T17:52:29.261Z,1.10
2022-12-06T17:57:54.294Z,1.11
2022-12-06T18:03:19.369Z,1.13
2022-12-06T18:08:47.459Z,1.15
2022-12-06T18:14:13.299Z,1.15
2022-12-06T18:19:38.290Z,1.18
2022-12-06T18:25:09.289Z,1.19
2022-12-06T18:30:34.299Z,1.19
2022-12-06T18:36:00.267Z,1.18
2022-12-06T18:41:32.331Z,1.18
2022-12-06T18:47:00.306Z,1.19
2022-12-06T18:52:26.311Z,1.20
2022-12-06T18:57:54.304Z,1.20
2022-12-06T19:03:20.348Z,1.21
2022-12-06T19:08:48.306Z,1.20
2022-12-06T19:14:16.349Z,1.19
2022-12-06T19:19:41.334Z,1.21
2022-12-06T19:25:06.302Z,1.20
2022-12-06T19:30:34.362Z,1.20
2022-12-06T19:35:59.864Z,1.19
2022-12-06T19:41:27.298Z,1.48
2022-12-06T19:46:57.292Z,1.46
2022-12-06T19:52:31.103Z,1.47
2022-12-06T19:57:57.354Z,1.42
2022-12-06T20:03:24.344Z,1.40
2022-12-06T20:08:51.307Z,1.40
2022-12-06T20:14:18.347Z,1.41
2022-12-06T20:19:46.503Z,1.40
2022-12-06T20:25:11.498Z,1.39
2022-12-06T20:30:40.681Z,1.46
2022-12-06T20:36:07.331Z,1.65
2022-12-06T20:41:36.351Z,1.63
2022-12-06T20:47:04.518Z,1.69
2022-12-06T20:52:33.362Z,1.77
2022-12-06T20:57:59.363Z,1.75
2022-12-06T21:03:24.438Z,1.63
2022-12-06T21:08:53.326Z,1.60
2022-12-06T21:14:20.385Z,1.73
2022-12-06T21:19:44.341Z,1.70
2022-12-06T21:25:12.509Z,1.64
2022-12-06T21:30:37.337Z,1.63
2022-12-06T21:36:03.779Z,1.75
2022-12-06T21:41:30.403Z,1.88
2022-12-06T21:46:55.399Z,1.85
2022-12-06T21:52:21.379Z,1.85
2022-12-06T21:57:49.377Z,1.81
2022-12-06T22:03:19.337Z,1.76
2022-12-06T22:08:48.355Z,1.80
2022-12-06T22:14:16.364Z,1.65
2022-12-06T22:19:42.378Z,1.84
2022-12-06T22:25:06.405Z,1.77
2022-12-06T22:30:34.706Z,1.64
2022-12-06T22:35:59.382Z,1.88
2022-12-06T22:41:24.408Z,1.82
2022-12-06T22:46:52.477Z,1.70
2022-12-06T22:52:17.370Z,1.72
2022-12-06T22:57:43.442Z,1.73
2022-12-06T23:03:11.396Z,1.53
2022-12-06T23:08:36.856Z,1.51
2022-12-06T23:14:01.401Z,1.48
2022-12-06T23:19:28.404Z,1.48
2022-12-06T23:24:53.406Z,1.39
2022-12-06T23:30:17.553Z,1.29
2022-12-06T23:35:45.404Z,1.31
2022-12-06T23:41:09.365Z,1.23
2022-12-06T23:46:36.461Z,1.02
2022-12-06T23:52:05.383Z,0.97
2022-12-06T23:57:30.421Z,0.80
